Mytilini, Greece

8:02 PM EEST on October 24, 2014 (GMT +0300)
Pligoni / Mitilini / Lesvos - SV8DTD | Change Station
CLOSE
Current Station
Personal Weather Station
Location: Ελλάδα,
Elevation: 131 ft
Nearby Weather Stations

Elev 131 ft 39.07 °N, 26.58 °E | Updated 1 minute ago

Rain
Rain
61.2 °F
Feels Like 61.2 °F
N
5.0
Wind Variable Wind from ESE
Gusts 10.0 mph

Today
High -- | Low -- °F
--% Chance of Precip.
Yesterday
High -- | Low -- °F
Precip. -- in
7:32 AM 6:22 PM
New Moon, 1% visible
Pressure 29.80 in
Visibility 5.0 miles
Clouds Few 2000 ft
Mostly Cloudy 2500 ft
Overcast 8000 ft
Dew Point 59 °F
Humidity 92%
Rainfall 0.72 in
Snow Depth Not available.
UV 0.0 out of 12
Pollen Not available.
Air Quality Not available.
Flu Activity Not available.
METAR LGMT 241650Z 17007KT 130V220 8000 RA FEW020 BKN025 OVC080 18/16 Q1009

More Conditions Fewer Conditions

Pressure 29.80 in
Visibility 5.0 miles
Clouds Few 2000 ft
Mostly Cloudy 2500 ft
Overcast 8000 ft
Dew Point 59 °F
Humidity 92%
Rainfall 0.72 in
Snow Depth Not available.
UV 0.0 out of 12
Pollen Not available.
Air Quality Not available.
Flu Activity Not available.
METAR LGMT 241650Z 17007KT 130V220 8000 RA FEW020 BKN025 OVC080 18/16 Q1009

More Conditions Fewer Conditions

10-Day Weather Forecast

Almanac

Astronomy

Oct. 24, 2014 Rise Set
Actual Time 7:32 AM EEST 6:22 PM EEST
Civil Twilight 7:04 AM EEST 6:50 PM EEST
Nautical Twilight 6:33 AM EEST 7:21 PM EEST
Astronomical Twilight 6:02 AM EEST 7:52 PM EEST
Moon 7:51 AM EEST 6:50 PM EEST
Length of Visible Light 11h 45m
Length of Day
10h 50m
Tomorrow will be 2m 21s shorter.
New Moon, 1% of the Moon is Illuminated
Today
New Moon
Oct 30
First Quarter
Nov 6
Full
Nov 14
Last Quarter
Nov 22
New

Today's Extremes

Country Highs Country Lows

Community

WunderPhotos

Upload Photos

1,764,613 photos uploaded!

WunderBlogs® & News

By Dr. Jeff Masters
Director of Meteorology, Weather Underground
By Kari Strenfel
Meteorologist, Weather Underground
By Christopher C. Burt
Weather Historian, Weather Underground
October 24, 2014
October 24, 2014
October 24, 2014

Nearby

Snow Depth

Not available.

Earthquake Activity

City Distance Mag. Time & Date
No recent earthquake activity has been reported nearby.
Minimum magnitude displayed is 2.5.

Coastal Water Temperatures

Place Temperature
No Stations Reporting

Nearby Weather Stations